^^

METAR Αεροδρομίων

σε ακτίνα 500 χλμ


 Τι είναι το METAR ??? 

Πρώτο είναι το πλησιέστερο αεροδρόμιο (Θεσ/νίκη LGTS 6χλμ) και
τέλος το πιο απομακρυσμένο (Κων/πολη LTBA 494χλμ).
Επίσης μερικές αναφορές, παρουσιάζουν λιγότερα στοιχεία γιατί
οι αρχικές είναι ελλιπείς ή έχουν λάθος μορφοποίηση.
Πηγαίνετε στις Αναφορές METAR από Μετεωρολογικούς Σταθμούς )  
Αλφαβητική Λίστα Γρήγορης Μετάβασης στα 48 Αεροδρόμια
Αλβανία: Τίρανα  Βουλγαρία: Γκόρνα Οριαχόβιτσα  Μπουργκάς  Σόφια  Φιλιππούπολη  Ελλάδα: Αθήνα  Αλεξανδρούπολη  Ανδραβίδα  Βόλος  Ελευσίνα  Ζάκυνθος  Θεσσαλονίκη  Ιωάννινα  Καβάλα  Καλαμάτα  Κέρκυρα  Κεφαλονιά  Κοζάνη  Κύθηρα
Λέσβος  Λήμνος  Μύκονος  Νάξος  Πάρος  Πάτρα  Πρέβεζα  Σάμος  Σκιάθος  Σκύρος  Σύρος  Χίος  Ιταλία: Γκαλατίνα  Μπρίντιζι  Σάντα Μαρία ντι Λέουκα  Ταράντο  Κόσοβο: Πρίστινα  Κροατία: Ντουμπρόβνικ  Μαυροβούνιο: Ποντγκόριτσα  Τιβάτ
Δ.Β.Μ: Οχρίδα  Σκόπια  Ρουμανία: Κραϊόβα  Σερβία: Κράλιεβο  Νις  Ούζιτσε  Τουρκία: Κωνσταντινούπολη  Σμύρνη Τσορλού 
(ΒΠΑ)Βάση Πολεμικής Αεροπορίας
LGTS - Αεροδρόμιο "Μακεδονία"
Θεσσαλονίκη - Κεντρική Μακεδονία - Ελλάδα
Γ.Πλάτ: 40.5167 - Γ.Μήκ: 22.9667 - Υψόμ: 7μ
Απόσταση από το Vouhead Weather: (Ν) 6χλμ
Ενημερώθηκε: 17/09/2019 05:20
Αίθριος
Αίθριος
 Άνεμος από ΑΝΑ
Άνεμος: ΑΝΑ 11 km/h
Θερμοκρασία: 17°C
Σημ. Δρόσου: 12°C
Υγρασία: 73%
Βαρόμετρο: 1015 hPa
Περίληψη: Αίθριος
Ορατότητα: Μεγαλύτερη από 10 km
2019/09/17 02:20 LGTS 170220Z 11006KT CAVOK 17/12 Q1015 NOSIG
LGKZ - Αεροδρόμιο "Φίλιππος"
Κοζάνη - Δυτική Μακεδονία - Ελλάδα
Γ.Πλάτ: 40.2833 - Γ.Μήκ: 21.8333 - Υψόμ: 628μ
Απόσταση από το Vouhead Weather: (ΔΝΔ) 102χλμ
Ενημερώθηκε: 17/09/2019 05:20

 Άνεμος από Β
Άνεμος: Β 7 km/h
Θερμοκρασία: 16°C
Σημ. Δρόσου: 7°C
Υγρασία: 55%
Βαρόμετρο: 1018 hPa
2019/09/17 02:20 LGKZ 170220Z AUTO 35004KT //// // ////// 16/07 Q1018 RE//
 
LGKV - Αεροδρόμιο "Μέγας Αλέξανδρος"
Καβάλα(Χρυσούπολη) - Α. Μακεδονία & Θράκη - Ελλάδα
Γ.Πλάτ: 40.9167 - Γ.Μήκ: 24.6167 - Υψόμ: 5μ
Απόσταση από το Vouhead Weather: (ΑΒΑ) 144χλμ
Ενημερώθηκε: 16/09/2019 23:20
ΜΗ ΠΡΟΣΦΑΤΟ METAR
Αίθριος
Αίθριος
 Άνεμος από Μεταβλητός
Άνεμος: Μεταβλητός 6 km/h
Θερμοκρασία: 20°C
Σημ. Δρόσου: 17°C
Υγρασία: 83%
Βαρόμετρο: 1015 hPa
Περίληψη: Αίθριος
Ορατότητα: Μεγαλύτερη από 10 km
2019/09/16 20:20 LGKV 162020Z VRB03KT CAVOK 20/17 Q1015
LGBL - Αεροδρόμιο στη Νέα Αγχίαλο
Βόλος(Αλμυρός) - Θεσσαλία - Ελλάδα
Γ.Πλάτ: 39.2167 - Γ.Μήκ: 22.8000 - Υψόμ: 26μ
Απόσταση από το Vouhead Weather: (Ν) 151χλμ
Ενημερώθηκε: 17/09/2019 03:50
ΜΗ ΠΡΟΣΦΑΤΟ METAR
Αίθριος
Αίθριος
 Άνεμος από Δ
Άνεμος: Δ 7 km/h
Θερμοκρασία: 16°C
Σημ. Δρόσου: 11°C
Υγρασία: 72%
Βαρόμετρο: 1015 hPa
Περίληψη: Αίθριος
Ορατότητα: Μεγαλύτερη από 10 km
2019/09/17 00:50 LGBL 170050Z 26004KT CAVOK 16/11 Q1015
 
LGSK - Αεροδρόμ. "Αλέξανδρος Παπαδιαμάντης"
Σκιάθος - Θεσσαλία(Σποράδες) - Ελλάδα
Γ.Πλάτ: 39.1833 - Γ.Μήκ: 23.5000 - Υψόμ: 15μ
Απόσταση από το Vouhead Weather: (ΝΝΑ) 160χλμ
Ενημερώθηκε: 16/09/2019 20:50
ΜΗ ΠΡΟΣΦΑΤΟ METAR
Αίθριος
Αίθριος
 Άνεμος από Μεταβλητός
Άνεμος: Μεταβλητός 6 km/h
Θερμοκρασία: 24°C
Σημ. Δρόσου: 17°C
Υγρασία: 65%
Βαρόμετρο: 1015 hPa
Περίληψη: Αίθριος
Ορατότητα: Μεγαλύτερη από 10 km
2019/09/16 17:50 LGSK 161750Z VRB03KT CAVOK 24/17 Q1015
LWSK - Αεροδρόμιο "Σκόπγιε Ιντερνάσιοναλ Έιρπορτ"
Σκόπια(Πέτροβακ) - Περιφέρεια Σκοπίων - Δ.Β.Μ
Γ.Πλάτ: 41.9667 - Γ.Μήκ: 21.6333 - Υψόμ: 239μ
Απόσταση από το Vouhead Weather: (ΒΔ) 192χλμ
Ενημερώθηκε: 17/09/2019 05:30
Αίθριος
Αίθριος
 Άνεμος από calm
Άνεμος: Απνοια
Θερμοκρασία: 11°C
Σημ. Δρόσου: 7°C
Υγρασία: 77%
Βαρόμετρο: 1017 hPa
Περίληψη: Αίθριος
Ορατότητα: Μεγαλύτερη από 10 km
2019/09/17 02:30 LWSK 170230Z 00000KT CAVOK 11/07 Q1017 NOSIG
 
LWOH - Αεροδρόμιο "Σεντ Πολ Δε Απόστλ"
Οχρίδα - Νοτιοδυτική Περιφέρεια - Δ.Β.Μ
Γ.Πλάτ: 41.9667 - Γ.Μήκ: 21.6333 - Υψόμ: 239μ
Απόσταση από το Vouhead Weather: (ΔΒΔ) 193χλμ
Ενημερώθηκε: 17/09/2019 05:30
Αίθριος
Αίθριος
 Άνεμος από ΒΒΔ
Άνεμος: ΒΒΔ 9 km/h
Θερμοκρασία: 11°C
Σημ. Δρόσου: 9°C
Υγρασία: 88%
Βαρόμετρο: 1019 hPa
Περίληψη: Αίθριος
Ορατότητα: Μεγαλύτερη από 10 km
2019/09/17 02:30 LWOH 170230Z 33005KT CAVOK 11/09 Q1019
LGLM - Αεροδρόμιο "Ήφαιστος"
Λήμνος - Βόρειο Αιγαίο - Ελλάδα
Γ.Πλάτ: 39.9167 - Γ.Μήκ: 25.2333 - Υψόμ: 5μ
Απόσταση από το Vouhead Weather: (ΑΝΑ) 205χλμ
Ενημερώθηκε: 17/09/2019 04:50
Αίθριος
Αίθριος
 Άνεμος από calm
Άνεμος: Απνοια
Θερμοκρασία: 17°C
Σημ. Δρόσου: 13°C
Υγρασία: 77%
Βαρόμετρο: 1014 hPa
Περίληψη: Αίθριος
Ορατότητα: Μεγαλύτερη από 10 km
2019/09/17 01:50 LGLM 170150Z 00000KT CAVOK 17/13 Q1014
 
LGIO - Αεροδρόμιο "Βασιλεύς Πύρρος"
Ιωάννινα - Ήπειρος - Ελλάδα
Γ.Πλάτ: 39.7000 - Γ.Μήκ: 20.8167 - Υψόμ: 476μ
Απόσταση από το Vouhead Weather: (ΔΝΔ) 207χλμ
Ενημερώθηκε: 17/09/2019 05:20

 Άνεμος από Μεταβλητός
Άνεμος: Μεταβλητός 0 km/h
Θερμοκρασία: 12°C
Σημ. Δρόσου: 10°C
Υγρασία: 88%
Βαρόμετρο: 1018 hPa
2019/09/17 02:20 LGIO 170220Z AUTO /////KT //// // ////// 12/10 Q1018 RE//
LGSY - Αεροδρόμιο στη Σκύρο
Σκύρος - Θεσσαλία(Σποράδες) - Ελλάδα
Γ.Πλάτ: 38.9667 - Γ.Μήκ: 24.4833 - Υψόμ: 15μ
Απόσταση από το Vouhead Weather: (ΝΑ) 220χλμ
Ενημερώθηκε: 17/09/2019 05:20

 Άνεμος από Μεταβλητός
Άνεμος: Μεταβλητός 4 km/h
Θερμοκρασία: 17°C
Σημ. Δρόσου: 14°C
Υγρασία: 83%
Βαρόμετρο: 1015 hPa
2019/09/17 02:20 LGSY 170220Z AUTO VRB02KT //// // ////// 17/14 Q1015 RE//
 
LBPD - Αεροδρόμιο στη Φιλιππούπολη
Φιλιππούπολη(Κρούμοβο) - Πλόβντιβ - Βουλγαρία
Γ.Πλάτ: 42.1333 - Γ.Μήκ: 24.8000 - Υψόμ: 185μ
Απόσταση από το Vouhead Weather: (ΒΑ) 231χλμ
Ενημερώθηκε: 17/09/2019 05:30
Αίθριος
Αίθριος
 Άνεμος από ΝΝΔ
Άνεμος: ΝΝΔ 4 km/h
Θερμοκρασία: 14°C
Σημ. Δρόσου: 7°C
Υγρασία: 63%
Βαρόμετρο: 1014 hPa
Σύννεφα: Αίθριος
Ορατότητα: 10 km
2019/09/17 02:30 LBPD 170230Z AUTO 20002KT 9999 NCD 14/07 Q1014
LBSF - Αεροδρόμιο στη Σόφια
Σόφια(Βράτσντεμπνα) - Μητρ. περ. Σόφιας - Βουλγαρία
Γ.Πλάτ: 42.6500 - Γ.Μήκ: 23.3833 - Υψόμ: 595μ
Απόσταση από το Vouhead Weather: (Β) 234χλμ
Ενημερώθηκε: 17/09/2019 05:30
Αίθριος
Αίθριος
 Άνεμος από Μεταβλητός
Άνεμος: Μεταβλητός 4 km/h
Θερμοκρασία: 9°C
Σημ. Δρόσου: 5°C
Υγρασία: 76%
Βαρόμετρο: 1017 hPa
Περίληψη: Αίθριος
Ορατότητα: Μεγαλύτερη από 10 km
2019/09/17 02:30 LBSF 170230Z VRB02KT CAVOK 09/05 Q1017 NOSIG
 
LGAL - Αεροδρόμιο "Δημόκριτος"
Αλεξανδρούπολη - Α. Μακεδονία & Θράκη - Ελλάδα
Γ.Πλάτ: 40.8500 - Γ.Μήκ: 25.9167 - Υψόμ: 3μ
Απόσταση από το Vouhead Weather: (Α) 250χλμ
Ενημερώθηκε: 17/09/2019 05:20
Αίθριος
Αίθριος
 Άνεμος από calm
Άνεμος: Απνοια
Θερμοκρασία: 15°C
Σημ. Δρόσου: 13°C
Υγρασία: 88%
Βαρόμετρο: 1014 hPa
Περίληψη: Αίθριος
Ορατότητα: Μεγαλύτερη από 10 km
2019/09/17 02:20 LGAL 170220Z 00000KT CAVOK 15/13 Q1014
BKPR - Αεροδρόμιο "Αντεμ Γιασάρι"
Πρίστινα - Πρίστινα - Κόσοβο
(Ελληνικό Υπουργείο Εξωτερικών, σχετικά με το Κόσοβο)
Γ.Πλάτ: 42.5833 - Γ.Μήκ: 21.0333 - Υψόμ: 576μ
Απόσταση από το Vouhead Weather: (ΒΔ) 276χλμ
Ενημερώθηκε: 17/09/2019 05:30
Αίθριος
Αίθριος
 Άνεμος από Μεταβλητός
Άνεμος: Μεταβλητός 2 km/h
Θερμοκρασία: 11°C
Σημ. Δρόσου: 7°C
Υγρασία: 77%
Βαρόμετρο: 1018 hPa
Περίληψη: Αίθριος
Ορατότητα: Μεγαλύτερη από 10 km
2019/09/17 02:30 BKPR 170230Z VRB01KT CAVOK 11/07 Q1018 NOSIG
 
LGKR - Αεροδρόμιο "Ιωάννης Καποδίστριας"
Κέρκυρα - Ιόνιοι Νήσοι - Ελλάδα
Γ.Πλάτ: 39.6000 - Γ.Μήκ: 19.9167 - Υψόμ: 2μ
Απόσταση από το Vouhead Weather: (ΔΝΔ) 281χλμ
Ενημερώθηκε: 17/09/2019 05:20
Αίθριος
Αίθριος
 Άνεμος από calm
Άνεμος: Απνοια
Θερμοκρασία: 19°C
Σημ. Δρόσου: 16°C
Υγρασία: 83%
Βαρόμετρο: 1015 hPa
Περίληψη: Αίθριος
Ορατότητα: Μεγαλύτερη από 10 km
2019/09/17 02:20 LGKR 170220Z 00000KT CAVOK 19/16 Q1015 NOSIG
LATI - Αεροδρόμιο "Μάδερ Τερέζα"
Τίρανα(Ρίνα) - Τίρανα - Αλβανία
Γ.Πλάτ: 41.3167 - Γ.Μήκ: 19.7667 - Υψόμ: 90μ
Απόσταση από το Vouhead Weather: (ΔΒΔ) 282χλμ
Ενημερώθηκε: 17/09/2019 05:20
Μερικώς νεφελώδης
Μερικώς νεφελώδης
 Άνεμος από ΝΝΑ
Άνεμος: ΝΝΑ 6 km/h
Θερμοκρασία: 16°C
Σημ. Δρόσου: 15°C
Υγρασία: 94%
Βαρόμετρο: 1016 hPa
Σύννεφα: Μερικώς νεφελώδης
Ορατότητα: 8 km
2019/09/17 02:20 LATI 170220Z 16003KT 8000 NSC 16/15 Q1016 NOSIG
 
LGEL - Αεροδρόμιο στην Ελευσίνα(ΒΠΑ)
Ελευσίνα - Αττική - Ελλάδα
Γ.Πλάτ: 38.0667 - Γ.Μήκ: 23.5500 - Υψόμ: 31μ
Απόσταση από το Vouhead Weather: (Ν) 282χλμ
Ενημερώθηκε: 17/09/2019 05:20
Αίθριος
Αίθριος
 Άνεμος από calm
Άνεμος: Απνοια
Θερμοκρασία: 19°C
Σημ. Δρόσου: 11°C
Υγρασία: 60%
Βαρόμετρο: 1014 hPa
Περίληψη: Αίθριος
Ορατότητα: Μεγαλύτερη από 10 km
2019/09/17 02:20 LGEL 170220Z 00000KT CAVOK 19/11 Q1014
LGPZ - Αεροδρόμιο στη Πρέβεζα
Πρέβεζα(Ακτιον) - Ήπειρος - Ελλάδα
Γ.Πλάτ: 38.6167 - Γ.Μήκ: 20.7667 - Υψόμ: 4μ
Απόσταση από το Vouhead Weather: (ΝΔ) 288χλμ
Ενημερώθηκε: 17/09/2019 04:50
Αίθριος
Αίθριος
 Άνεμος από calm
Άνεμος: Απνοια
Θερμοκρασία: 20°C
Σημ. Δρόσου: 19°C
Υγρασία: 94%
Βαρόμετρο: 1015 hPa
Περίληψη: Αίθριος
Ορατότητα: Μεγαλύτερη από 10 km
2019/09/17 01:50 LGPZ 170150Z 00000KT CAVOK 20/19 Q1015
 
LGRX - Αεροδρόμιο στη Πάτρα(ΒΠΑ)
Πάτρα(Αραξος) - Δυτική Ελλάδα - Ελλάδα
Γ.Πλάτ: 38.1667 - Γ.Μήκ: 21.4167 - Υψόμ: 15μ
Απόσταση από το Vouhead Weather: (ΝΝΔ) 299χλμ
Ενημερώθηκε: 17/09/2019 04:50
Αίθριος
Αίθριος
 Άνεμος από calm
Άνεμος: Απνοια
Θερμοκρασία: 18°C
Σημ. Δρόσου: 16°C
Υγρασία: 88%
Βαρόμετρο: 1015 hPa
Περίληψη: Αίθριος
Ορατότητα: Μεγαλύτερη από 10 km
2019/09/17 01:50 LGRX 170150Z 00000KT CAVOK 18/16 Q1015
LGAV - Αεροδρόμιο "Ελευθέριος Βεμιζέλος"
Αθήνα(Σπάτα) - Αττική - Ελλάδα
Γ.Πλάτ: 37.9333 - Γ.Μήκ: 23.9500 - Υψόμ: 94μ
Απόσταση από το Vouhead Weather: (ΝΝΑ) 305χλμ
Ενημερώθηκε: 17/09/2019 05:20
Αίθριος
Αίθριος
 Άνεμος από calm
Άνεμος: Απνοια
Θερμοκρασία: 17°C
Σημ. Δρόσου: 10°C
Υγρασία: 64%
Βαρόμετρο: 1015 hPa
Περίληψη: Αίθριος
Ορατότητα: Μεγαλύτερη από 10 km
2019/09/17 02:20 LGAV 170220Z 00000KT CAVOK 17/10 Q1015 NOSIG
 
LYNI - Αεροδρόμιο "Κονσταντίν Δε Γκρέιτ"
Νις - Νότια και Ανατολική Σερβία - Σερβία
Γ.Πλάτ: 43.3167 - Γ.Μήκ: 21.8833 - Υψόμ: 202μ
Απόσταση από το Vouhead Weather: (ΒΒΔ) 319χλμ
Ενημερώθηκε: 17/09/2019 05:30
Αίθριος
Αίθριος
 Άνεμος από Α
Άνεμος: Α 9 km/h
Θερμοκρασία: 13°C
Σημ. Δρόσου: 8°C
Υγρασία: 72%
Βαρόμετρο: 1017 hPa
Περίληψη: Αίθριος
Ορατότητα: Μεγαλύτερη από 10 km
2019/09/17 02:30 LYNI 170230Z 10005KT CAVOK 13/08 Q1017 NOSIG
LGAD - Αεροδρόμιο στην Ανδραβίδα(ΒΠΑ)
Ανδραβίδα - Δυτική Ελλάδα - Ελλάδα
Γ.Πλάτ: 37.9167 - Γ.Μήκ: 21.2667 - Υψόμ: 12μ
Απόσταση από το Vouhead Weather: (ΝΝΔ) 329χλμ
Ενημερώθηκε: 17/09/2019 05:20
Αίθριος
Αίθριος
 Άνεμος από calm
Άνεμος: Απνοια
Θερμοκρασία: 18°C
Σημ. Δρόσου: 15°C
Υγρασία: 83%
Βαρόμετρο: 1015 hPa
Περίληψη: Αίθριος
Ορατότητα: Μεγαλύτερη από 10 km
2019/09/17 02:20 LGAD 170220Z 00000KT CAVOK 18/15 Q1015
 
LGKF - Αεροδρόμιο στην Κεφαλονιά
Κεφαλονιά - Ιόνιοι Νήσοι - Ελλάδα
Γ.Πλάτ: 38.1167 - Γ.Μήκ: 20.5000 - Υψόμ: 18μ
Απόσταση από το Vouhead Weather: (ΝΔ) 346χλμ
Ενημερώθηκε: 16/09/2019 22:50
ΜΗ ΠΡΟΣΦΑΤΟ METAR
Αίθριος
Αίθριος
 Άνεμος από ΒΔ
Άνεμος: ΒΔ 24 km/h
Θερμοκρασία: 24°C
Σημ. Δρόσου: 20°C
Υγρασία: 78%
Βαρόμετρο: 1016 hPa
Περίληψη: Αίθριος
Ορατότητα: Μεγαλύτερη από 10 km
2019/09/16 19:50 LGKF 161950Z 31013KT CAVOK 24/20 Q1016
LGMT - Αεροδρόμιο "Οδυσσέας Ελύτης"
Λέσβος - Βόρειο Αιγαίο - Ελλάδα
Γ.Πλάτ: 39.0500 - Γ.Μήκ: 26.6000 - Υψόμ: 17μ
Απόσταση από το Vouhead Weather: (ΑΝΑ) 353χλμ
Ενημερώθηκε: 17/09/2019 05:20
Αίθριος
Αίθριος
 Άνεμος από calm
Άνεμος: Απνοια
Θερμοκρασία: 19°C
Σημ. Δρόσου: 14°C
Υγρασία: 73%
Βαρόμετρο: 1015 hPa
Περίληψη: Αίθριος
Ορατότητα: Μεγαλύτερη από 10 km
2019/09/17 02:20 LGMT 170220Z 00000KT CAVOK 19/14 Q1015
 
LGZA - Αεροδρόμιο "Διονύσιος Σολωμός"
Ζάκυνθος - Ιόνιοι Νήσοι - Ελλάδα
Γ.Πλάτ: 37.7500 - Γ.Μήκ: 20.8667 - Υψόμ: 3μ
Απόσταση από το Vouhead Weather: (ΝΝΔ) 362χλμ
Ενημερώθηκε: 17/09/2019 05:20
Διάσπαρτα νέφη
Διάσπαρτα νέφη
 Άνεμος από Μεταβλητός
Άνεμος: Μεταβλητός 2 km/h
Θερμοκρασία: 17°C
Σημ. Δρόσου: 12°C
Υγρασία: 73%
Βαρόμετρο: 1015 hPa
Σύννεφα: Διάσπαρτα νέφη
Ορατότητα: 10 km
Ανάλυση νέφωσης: Διάσπαρτα νέφη 610 m
2019/09/17 02:20 LGZA 170220Z VRB01KT 9999 FEW020 17/12 Q1015
LBGO - Αεροδρόμιο στη Γκόρνα Οριαχόβιτσα
Γκόρνα Οριαχόβιτσα - Βέλικο Τάρνοβο - Βουλγαρία
Γ.Πλάτ: 43.1500 - Γ.Μήκ: 25.7167 - Υψόμ: 86μ
Απόσταση από το Vouhead Weather: (ΒΑ) 366χλμ
Ενημερώθηκε: 17/09/2019 05:30
Αίθριος
Αίθριος
 Άνεμος από ΒΑ
Άνεμος: ΒΑ 4 km/h
Θερμοκρασία: 9°C
Σημ. Δρόσου: 9°C
Υγρασία: 100%
Βαρόμετρο: 1014 hPa
Σύννεφα: Αίθριος
Ορατότητα: 10 km
2019/09/17 02:30 LBGO 170230Z AUTO 05002KT 9999 NCD 09/09 Q1014
 
LGHI - Αεροδρόμιο "Όμηρος"
Χίος - Ιόνιοι Νήσοι - Ελλάδα
Γ.Πλάτ: 38.3167 - Γ.Μήκ: 26.1167 - Υψόμ: 4μ
Απόσταση από το Vouhead Weather: (ΝΑ) 368χλμ
Ενημερώθηκε: 17/09/2019 04:50
Αίθριος
Αίθριος
 Άνεμος από Μεταβλητός
Άνεμος: Μεταβλητός 2 km/h
Θερμοκρασία: 15°C
Σημ. Δρόσου: 10°C
Υγρασία: 72%
Βαρόμετρο: 1013 hPa
Περίληψη: Αίθριος
Ορατότητα: Μεγαλύτερη από 10 km
2019/09/17 01:50 LGHI 170150Z VRB01KT CAVOK 15/10 Q1013
LYPG - Αεροδρόμιο στη Ποντγκόριτσα
Ποντγκόριτσα - Γκολούμποβτσι - Μαυροβούνιο
Γ.Πλάτ: 42.3667 - Γ.Μήκ: 19.2500 - Υψόμ: 43μ
Απόσταση από το Vouhead Weather: (ΒΔ) 369χλμ
Ενημερώθηκε: 17/09/2019 05:30
Αίθριος
Αίθριος
 Άνεμος από ΒΒΔ
Άνεμος: ΒΒΔ 6 km/h
Θερμοκρασία: 18°C
Σημ. Δρόσου: 14°C
Υγρασία: 78%
Βαρόμετρο: 1016 hPa
Περίληψη: Αίθριος
Ορατότητα: Μεγαλύτερη από 10 km
2019/09/17 02:30 LYPG 170230Z 34003KT CAVOK 18/14 Q1016 NOSIG
 
LGSO - Αεροδρόμιο "Δημήτριος Βικέλας"
Σύρος - Νότιο Αιγαίο - Ελλάδα
Γ.Πλάτ: 37.4167 - Γ.Μήκ: 24.9500 - Υψόμ: 72μ
Απόσταση από το Vouhead Weather: (ΝΝΑ) 390χλμ
Ενημερώθηκε: 17/09/2019 02:20
ΜΗ ΠΡΟΣΦΑΤΟ METAR

 Άνεμος από ΒΔ
Άνεμος: ΒΔ 11 km/h
Θερμοκρασία: 22°C
Σημ. Δρόσου: 10°C
Υγρασία: 47%
Βαρόμετρο: 1015 hPa
2019/09/16 23:20 LGSO 162320Z AUTO 32006KT //// // ////// 22/10 Q1015 RE//
LGKL - Αεροδρόμιο στη Καλαμάτα(ΒΠΑ)
Καλαμάτα - Πελοπόννησος - Ελλάδα
Γ.Πλάτ: 37.0667 - Γ.Μήκ: 22.0167 - Υψόμ: 8μ
Απόσταση από το Vouhead Weather: (ΝΝΔ) 398χλμ
Ενημερώθηκε: 17/09/2019 05:20

 Άνεμος από Μεταβλητός
Άνεμος: Μεταβλητός 6 km/h
Θερμοκρασία: 16°C
Σημ. Δρόσου: 13°C
Υγρασία: 83%
Βαρόμετρο: 1015 hPa
2019/09/17 02:20 LGKL 170220Z AUTO VRB03KT //// // ////// 16/13 Q1015 RE//
 
LIBY - Αεροδρόμιο στη Σάντα Μαρία ντι Λέουκα
Σάντα Μαρία ντι Λέουκα - Απουλία(Λέτσε) - Ιταλία
Γ.Πλάτ: 39.8167 - Γ.Μήκ: 18.3500 - Υψόμ: 112μ
Απόσταση από το Vouhead Weather: (Δ) 402χλμ
Ενημερώθηκε: 16/09/2019 20:55
ΜΗ ΠΡΟΣΦΑΤΟ METAR
Αίθριος
Αίθριος
 Άνεμος από ΑΒΑ
Άνεμος: ΑΒΑ 4 km/h
Θερμοκρασία: 23°C
Σημ. Δρόσου: 22°C
Υγρασία: 94%
Βαρόμετρο: 1016 hPa
Περίληψη: Αίθριος
Ορατότητα: Μεγαλύτερη από 10 km
2019/09/16 17:55 LIBY 161755Z 07002KT CAVOK 23/22 Q1016 RMK SCT SCT190 QUK / QUL / VIS MAR 15 KM VIS MIN 9999
LGMK - Αεροδρόμιο στη Μύκονο
Μύκονος - Νότιο Αιγαίο - Ελλάδα
Γ.Πλάτ: 37.4333 - Γ.Μήκ: 25.3500 - Υψόμ: 123μ
Απόσταση από το Vouhead Weather: (ΝΝΑ) 404χλμ
Ενημερώθηκε: 17/09/2019 05:20
Αίθριος
Αίθριος
 Άνεμος από Β
Άνεμος: Β 13 km/h
Θερμοκρασία: 20°C
Σημ. Δρόσου: 13°C
Υγρασία: 64%
Βαρόμετρο: 1014 hPa
Περίληψη: Αίθριος
Ορατότητα: Μεγαλύτερη από 10 km
2019/09/17 02:20 LGMK 170220Z 35007KT CAVOK 20/13 Q1014
 
LYTV - Αεροδρόμιο στο Τιβάτ
Τιβάτ - Τιβάτ - Μαυροβούνιο
Γ.Πλάτ: 42.3833 - Γ.Μήκ: 18.7167 - Υψόμ: 5μ
Απόσταση από το Vouhead Weather: (ΔΒΔ) 408χλμ
Ενημερώθηκε: 17/09/2019 05:30
Αίθριος
Αίθριος
 Άνεμος από Μεταβλητός
Άνεμος: Μεταβλητός 2 km/h
Θερμοκρασία: 14°C
Σημ. Δρόσου: 14°C
Υγρασία: 100%
Βαρόμετρο: 1015 hPa
Περίληψη: Αίθριος
Ορατότητα: Μεγαλύτερη από 10 km
2019/09/17 02:30 LYTV 170230Z VRB01KT CAVOK 14/14 Q1015
LIBN - Αεροδρόμιο στη Γκαλατίνα(ΒΠΑ)
Γκαλατίνα - Απουλία(Λέτσε) - Ιταλία
Γ.Πλάτ: 40.2167 - Γ.Μήκ: 18.1333 - Υψόμ: 61μ
Απόσταση από το Vouhead Weather: (Δ) 412χλμ
Ενημερώθηκε: 17/09/2019 04:55
Μερικώς νεφελώδης
Μερικώς νεφελώδης
 Άνεμος από Μεταβλητός
Άνεμος: Μεταβλητός 2 km/h
Θερμοκρασία: 16°C
Σημ. Δρόσου: 15°C
Υγρασία: 94%
Βαρόμετρο: 1017 hPa
Σύννεφα: Μερικώς νεφελώδης
Ορατότητα: 6 km
Ανάλυση νέφωσης: Μερικώς νεφελώδης 305 m
2019/09/17 01:55 LIBN 170155Z VRB01KT 6000 SCT010 16/15 Q1017 RMK SCT VIS MIN 6000 WIND THR14 VRB01KT WIND THR32 VRB01KT WHT
 
LYKV - Αεροδρόμιο στο Κράλιεβο & Λάντεβτσι
Κράλιεβο(Όμπρβα) - Σουμαντίγια και Δ. Σερβία - Σερβία
Γ.Πλάτ: 43.8167 - Γ.Μήκ: 20.5833 - Υψόμ: 209μ
Απόσταση από το Vouhead Weather: (ΒΒΔ) 412χλμ
Ενημερώθηκε: 17/09/2019 05:30
Αίθριος
Αίθριος
 Άνεμος από Μεταβλητός
Άνεμος: Μεταβλητός 2 km/h
Θερμοκρασία: 9°C
Σημ. Δρόσου: 9°C
Υγρασία: 100%
Βαρόμετρο: 1016 hPa
Περίληψη: Αίθριος
Ορατότητα: Μεγαλύτερη από 10 km
2019/09/17 02:30 LYKV 170230Z VRB01KT CAVOK 09/09 Q1016 NOSIG
LTBU - Αεροδρόμιο στο Τσορλού(ΒΠΑ)
Τσορλού - Μαρμαράς(Τεκιρντάγ-Ραιδεστός) - Τουρκία
Γ.Πλάτ: 41.1167 - Γ.Μήκ: 27.9167 - Υψόμ: 173μ
Απόσταση από το Vouhead Weather: (Α) 420χλμ
Ενημερώθηκε: 17/09/2019 05:20
Αίθριος
Αίθριος
 Άνεμος από Δ
Άνεμος: Δ 7 km/h
Θερμοκρασία: 14°C
Σημ. Δρόσου: 9°C
Υγρασία: 72%
Βαρόμετρο: 1015 hPa
Περίληψη: Αίθριος
Ορατότητα: Μεγαλύτερη από 10 km
2019/09/17 02:20 LTBU 170220Z 28004KT CAVOK 14/09 Q1015
 
LRCV - Αεροδρόμιο στη Κραϊόβα
Κραϊόβα - Δολζ - Ρουμανία
Γ.Πλάτ: 44.3167 - Γ.Μήκ: 23.8833 - Υψόμ: 191μ
Απόσταση από το Vouhead Weather: (Β) 424χλμ
Ενημερώθηκε: 17/09/2019 05:30
Αίθριος
Αίθριος
 Άνεμος από Δ
Άνεμος: Δ 15 km/h
Θερμοκρασία: 15°C
Σημ. Δρόσου: 9°C
Υγρασία: 68%
Βαρόμετρο: 1013 hPa
Σύννεφα: Αίθριος
Ορατότητα: 10 km
2019/09/17 02:30 LRCV 170230Z AUTO 26008KT 9999 NCD 15/09 Q1013
LIBR - Αεροδρόμιο στο Μπρίντιζι
(Ανεπίσημο όνομα αεροδρομίου: Ντελ Σαλέντο)
Μπρίντιζι(Πάπολα-Καζάλε) - Απουλία(Μπρίντιζι) - Ιταλία
Γ.Πλάτ: 40.6500 - Γ.Μήκ: 17.9500 - Υψόμ: 10μ
Απόσταση από το Vouhead Weather: (Δ) 424χλμ
Ενημερώθηκε: 17/09/2019 05:20
Αίθριος
Αίθριος
 Άνεμος από ΝΔ
Άνεμος: ΝΔ 13 km/h
Θερμοκρασία: 17°C
Σημ. Δρόσου: 16°C
Υγρασία: 94%
Βαρόμετρο: 1016 hPa
Περίληψη: Αίθριος
Ορατότητα: Μεγαλύτερη από 10 km
2019/09/17 02:20 LIBR 170220Z 23007KT CAVOK 17/16 Q1016
 
LBBG - Αεροδρόμιο στo Μπουργκάς
Μπουργκάς(Σαράφοβο) - Μπουργκάς - Βουλγαρία
Γ.Πλάτ: 42.5000 - Γ.Μήκ: 27.4833 - Υψόμ: 28μ
Απόσταση από το Vouhead Weather: (ΑΒΑ) 432χλμ
Ενημερώθηκε: 17/09/2019 05:30
Αίθριος
Αίθριος
 Άνεμος από ΝΔ
Άνεμος: ΝΔ 17 km/h
Θερμοκρασία: 15°C
Σημ. Δρόσου: 9°C
Υγρασία: 68%
Βαρόμετρο: 1013 hPa
Περίληψη: Αίθριος
Ορατότητα: Μεγαλύτερη από 10 km
2019/09/17 02:30 LBBG 170230Z 23009KT CAVOK 15/09 Q1013 NOSIG
LGPA - Αεροδρόμιο "Παντελαίειο"
Πάρος - Νότιο Αιγαίο - Ελλάδα
Γ.Πλάτ: 37.0000 - Γ.Μήκ: 25.0667 - Υψόμ: 36μ
Απόσταση από το Vouhead Weather: (ΝΝΑ) 436χλμ
Ενημερώθηκε: 17/09/2019 05:20
Αίθριος
Αίθριος
 Άνεμος από Β
Άνεμος: Β 20 km/h
Θερμοκρασία: 18°C
Σημ. Δρόσου: 13°C
Υγρασία: 73%
Βαρόμετρο: 1014 hPa
Περίληψη: Αίθριος
Ορατότητα: Μεγαλύτερη από 10 km
2019/09/17 02:20 LGPA 170220Z 36011KT CAVOK 18/13 Q1014
 
LGNX - Αεροδρόμιο στη Νάξο
Νάξος - Νότιο Αιγαίο - Ελλάδα
Γ.Πλάτ: 37.0833 - Γ.Μήκ: 25.3667 - Υψόμ: 4μ
Απόσταση από το Vouhead Weather: (ΝΝΑ) 439χλμ
Ενημερώθηκε: 16/09/2019 17:50
ΜΗ ΠΡΟΣΦΑΤΟ METAR
Αίθριος
Αίθριος
 Άνεμος από Β
Άνεμος: Β 22 km/h
Θερμοκρασία: 24°C
Σημ. Δρόσου: 15°C
Υγρασία: 57%
Βαρόμετρο: 1014 hPa
Περίληψη: Αίθριος
Ορατότητα: Μεγαλύτερη από 10 km
2019/09/16 14:50 LGNX 161450Z 36012KT CAVOK 24/15 Q1014
LTBJ - Αεροδρόμιο "Αντνάν Μεντερές"
Σμύρνη - Αιγαίο(Σμύρνη) - Τουρκία
Γ.Πλάτ: 38.2667 - Γ.Μήκ: 27.1333 - Υψόμ: 120μ
Απόσταση από το Vouhead Weather: (ΝΑ) 439χλμ
Ενημερώθηκε: 17/09/2019 05:20
Αίθριος
Αίθριος
 Άνεμος από Μεταβλητός
Άνεμος: Μεταβλητός 4 km/h
Θερμοκρασία: 16°C
Σημ. Δρόσου: 12°C
Υγρασία: 77%
Βαρόμετρο: 1013 hPa
Περίληψη: Αίθριος
Ορατότητα: Μεγαλύτερη από 10 km
2019/09/17 02:20 LTBJ 170220Z VRB02KT CAVOK 16/12 Q1013 NOSIG
 
LDDU - Αεροδρόμιο στο Ντουμπρόβνικ
Ντουμπρόβνικ - Ντουμπρόβνικ Νερέτβα - Κροατία
Γ.Πλάτ: 42.5667 - Γ.Μήκ: 18.2667 - Υψόμ: 165μ
Απόσταση από το Vouhead Weather: (ΔΒΔ) 450χλμ
Ενημερώθηκε: 17/09/2019 05:30
Αίθριος
Αίθριος
 Άνεμος από Α
Άνεμος: Α 7 km/h
Θερμοκρασία: 17°C
Σημ. Δρόσου: 14°C
Υγρασία: 83%
Βαρόμετρο: 1016 hPa
Περίληψη: Αίθριος
Ορατότητα: Μεγαλύτερη από 10 km
2019/09/17 02:30 LDDU 170230Z 08004KT 050V110 CAVOK 17/14 Q1016 NOSIG
LYUZ - Αεροδρόμιο στην Ούζιτσε & Πόνικβε
(Ανεπίσημο όνομα αεροδρομίου: Λέπα Γκλάβα)
Ούζιτσε - Σουμαντίγια και Δ. Σερβία - Σερβία
Γ.Πλάτ: 43.9000 - Γ.Μήκ: 19.7000 - Υψόμ: 904μ
Απόσταση από το Vouhead Weather: (ΒΔ) 458χλμ
Ενημερώθηκε: 17/09/2019 05:30
Αίθριος
Αίθριος
 Άνεμος από ΔΒΔ
Άνεμος: ΔΒΔ 6 km/h
Θερμοκρασία: 14°C
Σημ. Δρόσου: 7°C
Υγρασία: 63%
Βαρόμετρο: 1019 hPa
Περίληψη: Αίθριος
Ορατότητα: Μεγαλύτερη από 10 km
2019/09/17 02:30 LYUZ 170230Z AUTO 29003KT 220V330 CAVOK 14/07 Q1019
 
LGSM - Αεροδρόμιο "Αρίσταρχος ο Σάμιος"
Σάμος - Βόρειο Αιγαίο - Ελλάδα
Γ.Πλάτ: 37.6833 - Γ.Μήκ: 26.9167 - Υψόμ: 6μ
Απόσταση από το Vouhead Weather: (ΝΑ) 467χλμ
Ενημερώθηκε: 17/09/2019 05:20
Αίθριος
Αίθριος
 Άνεμος από calm
Άνεμος: Απνοια
Θερμοκρασία: 22°C
Σημ. Δρόσου: 14°C
Υγρασία: 61%
Βαρόμετρο: 1012 hPa
Περίληψη: Αίθριος
Ορατότητα: Μεγαλύτερη από 10 km
2019/09/17 02:20 LGSM 170220Z 00000KT CAVOK 22/14 Q1012
LIBG - Αεροδρόμιο "Μαρτσέλο Αρλόττα"
Μουντιάζι(Ταράντο-Γκροτάλιε)-Απουλία(Ταράντο)-Ιταλία
Γ.Πλάτ: 40.5167 - Γ.Μήκ: 17.3833 - Υψόμ: 69μ
Απόσταση από το Vouhead Weather: (Δ) 472χλμ
Ενημερώθηκε: 16/09/2019 20:50
ΜΗ ΠΡΟΣΦΑΤΟ METAR
Αίθριος
Αίθριος
 Άνεμος από Α
Άνεμος: Α 7 km/h
Θερμοκρασία: 23°C
Σημ. Δρόσου: 17°C
Υγρασία: 69%
Βαρόμετρο: 1016 hPa
Περίληψη: Αίθριος
Ορατότητα: Μεγαλύτερη από 10 km
2019/09/16 17:50 LIBG 161750Z 09004KT CAVOK 23/17 Q1016
 
LGKC - Αεροδρόμιο στα Κύθηρα
Κύθηρα(Επτάνησα) - Αττική(Νήσοι) - Ελλάδα
Γ.Πλάτ: 36.2833 - Γ.Μήκ: 23.0167 - Υψόμ: 319μ
Απόσταση από το Vouhead Weather: (Ν) 476χλμ
Ενημερώθηκε: 16/09/2019 17:50
ΜΗ ΠΡΟΣΦΑΤΟ METAR
Αίθριος
Αίθριος
 Άνεμος από ΑΒΑ
Άνεμος: ΑΒΑ 13 km/h
Θερμοκρασία: 25°C
Σημ. Δρόσου: 17°C
Υγρασία: 61%
Βαρόμετρο: 1018 hPa
Περίληψη: Αίθριος
Ορατότητα: Μεγαλύτερη από 10 km
2019/09/16 14:50 LGKC 161450Z 07007KT CAVOK 25/17 Q1018
LTBA - Αεροδρόμιο "Ατατούρκ"
Κωνσταντινούπολη - Μαρμαράς(Κων/πολη) - Τουρκία
Γ.Πλάτ: 40.9667 - Γ.Μήκ: 28.8167 - Υψόμ: 37μ
Απόσταση από το Vouhead Weather: (Α) 494χλμ
Ενημερώθηκε: 17/09/2019 05:20
Αίθριος
Αίθριος
 Άνεμος από Δ
Άνεμος: Δ 4 km/h
Θερμοκρασία: 17°C
Σημ. Δρόσου: 16°C
Υγρασία: 94%
Βαρόμετρο: 1015 hPa
Περίληψη: Αίθριος
Ορατότητα: Μεγαλύτερη από 10 km
2019/09/17 02:20 LTBA 170220Z 27002KT CAVOK 17/16 Q1015 NOSIG
   Μην χρησιμοποιήσετε τα στοιχεία για αποφάσεις που αφορούν ζωές και πάσης φύσεως ιδιοκτησίες  
ΠΗΓΑΙΝΕΤΕ ΣΤΗΝ ΙΟΝΙΑ ΠΗΓΑΙΝΕΤΕ ΣΤΗΝ ΡΕΑ ΠΗΓΑΙΝΕΤΕ ΣΤΗΝ ΚΗΦΙΣΙΑ ΠΗΓΑΙΝΕΤΕ ΣΤΗΝ ΣΥΡΟ ΠΗΓΑΙΝΕΤΕ ΣΤΗΝ ΔΕΞΑΜΕΝΗ (BOLTEK) ΠΗΓΑΙΝΕΤΕ ΣΤΗΝ ΔΕΞΑΜΕΝΗ (LR) Γενική Γραμματεία Πολιτικής Προστασίας Ενιαίος Ευρωπαϊκός Αριθμός Έκτακτης Ανάγκης Βίντεο για το Καστελλόριζο(Μεγίστη) από τα αρχεία της ΕΡΤ Ιστοσελίδα Δήμου Μεγίστης Δείτε το μεγαλύτερο